Jupiter, FL (33458)

10:50 PM EST on December 27, 2014 (GMT -0500)
Pennock Ln. | Change Station
CLOSE
Current Station
Personal Weather Station
Location: Jupiter, FL
Elevation: 20 ft
Nearby Weather Stations

Elev 20 ft 26.94 °N, 80.11 °W | Updated 1 second ago

Partly Cloudy
Partly Cloudy
68.9 °F
Feels Like 68.9 °F
N
0.0
Wind Variable Wind from SSE
Gusts 0.0 mph

Today
High -- | Low -- °F
--% Chance of Precip.
Yesterday
High -- | Low -- °F
Precip. -- in
7:07 AM 5:35 PM
Waxing Crescent, 43% visible
Pressure 30.18 in
Visibility 10.0 miles
Clouds Few 2600 ft
Mostly Cloudy 25000 ft
Dew Point 66 °F
Humidity 90%
Rainfall 0.00 in
Snow Depth Not available.
UV 0.0 out of 12
Pollen 4.90 out of 12
Air Quality Not available.
Flu Activity Not available.
METAR KPBI 280253Z 00000KT 10SM FEW026 BKN250 23/21 A3018 RMK AO2 SLP220 T02280206 51008

More Conditions Fewer Conditions

Pressure 30.18 in
Visibility 10.0 miles
Clouds Few 2600 ft
Mostly Cloudy 25000 ft
Dew Point 66 °F
Humidity 90%
Rainfall 0.00 in
Snow Depth Not available.
UV 0.0 out of 12
Pollen 4.90 out of 12
Air Quality Not available.
Flu Activity Not available.
METAR KPBI 280253Z 00000KT 10SM FEW026 BKN250 23/21 A3018 RMK AO2 SLP220 T02280206 51008

More Conditions Fewer Conditions

10-Day Weather Forecast

Almanac

Astronomy

Dec. 27, 2014 Rise Set
Actual Time
Civil Twilight
Nautical Twilight
Astronomical Twilight
Moon
Length of Visible Light
Length of Day
Tomorrow will be .
, % of the Moon is Illuminated

Today's Extremes

State Highs State Lows

Community

WunderPhotos

Upload Photos

1,781,185 photos uploaded!

WunderBlogs® & News

Nearby

Air Quality

  Air Quality AQ Index Pollutant
Not available.

Snow Depth

Station Depth Elevation

Earthquake Activity

City Distance Mag. Time & Date
Minimum magnitude displayed is 2.5.

Coastal Water Temperatures

Place Temperature

Nearby Weather Stations